Aérodrome :
LOGIN :

S'inscrire | Disclaimer

   EN    FR    IT 

 










Légende :    VFR   VFR Marginal   IFR   IFR Intensif   IFR Très Intensif
Visi : 
Plafond : 
>= 8 km
>= 3000ft
5 à 8 km
1000 à 3000 ft
1500m à 5 km
500 à 1000 ft
800 à 1500m
200 à 500 ft
< 800m
< 200 ft
Symboles :   Orages  Brouillard  Fortes neiges  Fortes précipitations  Vent > 20 kt
SIGMETs :   Divers  Orages  Givrage  Turbulence  Onde Orograph.  Cendres Volcan.







- Altitude de l'aérodrome : 291 ft
- Code IATA : ORY
- Voir les cartes d'approche


LFPO - Paris-Orly

DERNIER METAR :
  • 171700Z 15002KT 8000 FEW004 BKN260 06/05 Q1025 TEMPO BKN007

METARs EXPIRÉS :
  • 171630Z 16003KT 8000 SCT004 BKN008 06/06 Q1025 TEMPO BKN007
  • 171600Z 21004KT 170V240 8000 SCT004 OVC006 06/06 Q1025 TEMPO BKN007
  • 171530Z 19006KT 9999 SCT006 SCT260 06/05 Q1024 TEMPO BKN007
  • 171500Z 20006KT 9999 SCT005 BKN006 06/05 Q1024 TEMPO BKN007
  • 171430Z 21007KT 9999 SCT006 06/05 Q1024 TEMPO BKN007

TAF TAF LFPO
Valide du 17 à 12h jusqu'au 18 à 18h UTC


171100Z 1712/1818 22008KT 9999 BKN007
TEMPO 1712/1718 BKN003
BECMG 1803/1806 15008KT
PROB40
TEMPO 1800/1808 2500 BR
BECMG 1809/1812 CAVOK
ATIS : +33 1 49 75 65 80
Pas de NOTAMs connus pour ce terrain.



MET'MAP, la Météo Aéronautique d'un coup d'oeil ! - Copyright ORBIFLY Décembre 2007 - Disclaimer

ORBIFLY MET'MAP TEAM :

Programmation & Développement : Alexandra Zaïnal
Conception & Développement : Baudouin d'Aumeries
Co-Programmation & Développement : Marc-Olivier Méhu
Soutien technique & logistique : Manuel Goepfert

Contact : metmap@orbifly.com




SOURCES & CREDITS :

   NOAA